sensor_id;sensor_type;location;lat;lon;timestamp;pressure;altitude;pressure_sealevel;temperature;humidity
22830;BME280;11581;51.250;6.778;2023-03-01T00:02:15;102551.28;;;2.84;45.69
22830;BME280;11581;51.250;6.778;2023-03-01T00:04:43;102583.75;;;3.09;45.67
22830;BME280;11581;51.250;6.778;2023-03-01T00:07:10;102569.13;;;3.00;45.65
22830;BME280;11581;51.250;6.778;2023-03-01T00:09:36;102597.03;;;3.06;45.89
22830;BME280;11581;51.250;6.778;2023-03-01T00:12:05;102591.81;;;3.04;45.78
22830;BME280;11581;51.250;6.778;2023-03-01T00:14:32;102575.59;;;2.92;45.75
22830;BME280;11581;51.250;6.778;2023-03-01T00:16:59;102573.75;;;2.94;45.69
22830;BME280;11581;51.250;6.778;2023-03-01T00:19:27;102592.91;;;2.99;45.89
22830;BME280;11581;51.250;6.778;2023-03-01T00:21:55;102591.19;;;2.98;46.50
22830;BME280;11581;51.250;6.778;2023-03-01T00:24:22;102535.28;;;2.65;45.98
22830;BME280;11581;51.250;6.778;2023-03-01T00:26:48;102593.94;;;2.95;46.32
22830;BME280;11581;51.250;6.778;2023-03-01T00:29:19;102584.38;;;2.92;46.13
22830;BME280;11581;51.250;6.778;2023-03-01T00:31:46;102580.06;;;2.90;46.43
22830;BME280;11581;51.250;6.778;2023-03-01T00:34:12;102582.78;;;2.87;46.43
22830;BME280;11581;51.250;6.778;2023-03-01T00:36:39;102586.34;;;2.86;46.68
22830;BME280;11581;51.250;6.778;2023-03-01T00:39:10;102578.56;;;2.83;47.12
22830;BME280;11581;51.250;6.778;2023-03-01T00:41:38;102582.16;;;2.80;46.73
22830;BME280;11581;51.250;6.778;2023-03-01T00:44:05;102582.22;;;2.79;46.72
22830;BME280;11581;51.250;6.778;2023-03-01T00:46:32;102565.59;;;2.77;46.79
22830;BME280;11581;51.250;6.778;2023-03-01T00:48:59;102564.16;;;2.68;46.81
22830;BME280;11581;51.250;6.778;2023-03-01T00:51:27;102569.25;;;2.73;46.79
22830;BME280;11581;51.250;6.778;2023-03-01T00:53:57;102569.38;;;2.70;47.03
22830;BME280;11581;51.250;6.778;2023-03-01T00:56:25;102581.72;;;2.68;47.32
22830;BME280;11581;51.250;6.778;2023-03-01T00:58:52;102560.75;;;2.65;46.89
22830;BME280;11581;51.250;6.778;2023-03-01T01:01:20;102566.16;;;2.62;47.42
22830;BME280;11581;51.250;6.778;2023-03-01T01:03:49;102528.81;;;2.24;47.46
22830;BME280;11581;51.250;6.778;2023-03-01T01:06:18;102570.34;;;2.43;47.52
22830;BME280;11581;51.250;6.778;2023-03-01T01:08:46;102566.47;;;2.53;47.29
22830;BME280;11581;51.250;6.778;2023-03-01T01:11:12;102563.84;;;2.53;47.62
22830;BME280;11581;51.250;6.778;2023-03-01T01:13:41;102562.16;;;2.50;48.04
22830;BME280;11581;51.250;6.778;2023-03-01T01:16:08;102548.19;;;2.48;47.83
22830;BME280;11581;51.250;6.778;2023-03-01T01:18:34;102485.50;;;2.08;47.78
22830;BME280;11581;51.250;6.778;2023-03-01T01:21:06;102528.31;;;2.40;48.35
22830;BME280;11581;51.250;6.778;2023-03-01T01:23:33;102538.72;;;2.43;47.80
22830;BME280;11581;51.250;6.778;2023-03-01T01:26:04;102534.34;;;2.42;48.18
22830;BME280;11581;51.250;6.778;2023-03-01T01:28:31;102533.56;;;2.40;47.79
22830;BME280;11581;51.250;6.778;2023-03-01T01:30:59;102517.22;;;2.30;48.06
22830;BME280;11581;51.250;6.778;2023-03-01T01:33:25;102515.56;;;2.27;47.71
22830;BME280;11581;51.250;6.778;2023-03-01T01:35:53;102517.31;;;2.27;47.76
22830;BME280;11581;51.250;6.778;2023-03-01T01:38:20;102528.63;;;2.30;47.86
22830;BME280;11581;51.250;6.778;2023-03-01T01:40:48;102495.81;;;2.14;47.68
22830;BME280;11581;51.250;6.778;2023-03-01T01:43:19;102513.88;;;2.25;48.53
22830;BME280;11581;51.250;6.778;2023-03-01T01:45:46;102514.84;;;2.22;47.84
22830;BME280;11581;51.250;6.778;2023-03-01T01:48:17;102487.22;;;2.09;48.52
22830;BME280;11581;51.250;6.778;2023-03-01T01:50:44;102494.78;;;2.18;47.85
22830;BME280;11581;51.250;6.778;2023-03-01T01:53:15;102494.00;;;2.16;48.65
22830;BME280;11581;51.250;6.778;2023-03-01T01:55:45;102477.66;;;2.07;48.14
22830;BME280;11581;51.250;6.778;2023-03-01T01:58:16;102286.94;;;0.93;48.58
22830;BME280;11581;51.250;6.778;2023-03-01T02:00:44;102486.38;;;2.09;48.37
22830;BME280;11581;51.250;6.778;2023-03-01T02:03:12;102454.91;;;1.80;48.48
22830;BME280;11581;51.250;6.778;2023-03-01T02:05:47;102496.19;;;2.04;49.27
22830;BME280;11581;51.250;6.778;2023-03-01T02:08:19;102489.25;;;2.01;49.09
22830;BME280;11581;51.250;6.778;2023-03-01T02:10:48;102491.06;;;1.99;49.08
22830;BME280;11581;51.250;6.778;2023-03-01T02:13:15;102494.63;;;1.98;48.60
22830;BME280;11581;51.250;6.778;2023-03-01T02:15:42;102502.56;;;1.97;48.60
22830;BME280;11581;51.250;6.778;2023-03-01T02:18:11;102409.75;;;1.40;49.01
22830;BME280;11581;51.250;6.778;2023-03-01T02:20:48;102500.06;;;1.92;50.12
22830;BME280;11581;51.250;6.778;2023-03-01T02:23:17;102504.56;;;1.90;49.14
22830;BME280;11581;51.250;6.778;2023-03-01T02:25:51;102502.03;;;1.87;49.75
22830;BME280;11581;51.250;6.778;2023-03-01T02:28:35;102474.53;;;1.70;50.53
22830;BME280;11581;51.250;6.778;2023-03-01T02:31:03;102492.53;;;1.82;48.75
22830;BME280;11581;51.250;6.778;2023-03-01T02:33:48;102426.50;;;1.37;48.94
22830;BME280;11581;51.250;6.778;2023-03-01T02:36:18;102450.81;;;1.45;49.65
22830;BME280;11581;51.250;6.778;2023-03-01T02:38:47;102495.53;;;1.71;49.63
22830;BME280;11581;51.250;6.778;2023-03-01T02:41:16;102491.22;;;1.69;49.77
22830;BME280;11581;51.250;6.778;2023-03-01T02:43:45;102431.97;;;1.31;49.77
22830;BME280;11581;51.250;6.778;2023-03-01T02:46:17;102438.75;;;1.38;50.38
22830;BME280;11581;51.250;6.778;2023-03-01T02:48:46;102478.38;;;1.60;49.98
22830;BME280;11581;51.250;6.778;2023-03-01T02:51:38;102435.59;;;1.27;51.13
22830;BME280;11581;51.250;6.778;2023-03-01T02:54:14;102481.94;;;1.57;50.49
22830;BME280;11581;51.250;6.778;2023-03-01T02:56:41;102481.94;;;1.57;49.76
22830;BME280;11581;51.250;6.778;2023-03-01T02:59:10;102478.53;;;1.55;49.78
22830;BME280;11581;51.250;6.778;2023-03-01T03:01:37;102490.84;;;1.53;49.38
22830;BME280;11581;51.250;6.778;2023-03-01T03:04:07;102453.66;;;1.38;49.74
22830;BME280;11581;51.250;6.778;2023-03-01T03:06:35;102461.66;;;1.35;49.51
22830;BME280;11581;51.250;6.778;2023-03-01T03:09:02;102472.81;;;1.41;49.60
22830;BME280;11581;51.250;6.778;2023-03-01T03:11:29;102487.53;;;1.47;49.58
22830;BME280;11581;51.250;6.778;2023-03-01T03:13:57;102489.34;;;1.46;50.13
22830;BME280;11581;51.250;6.778;2023-03-01T03:16:25;102476.22;;;1.45;50.61
22830;BME280;11581;51.250;6.778;2023-03-01T03:18:52;102477.16;;;1.44;49.87
22830;BME280;11581;51.250;6.778;2023-03-01T03:21:18;102453.09;;;1.28;49.95
22830;BME280;11581;51.250;6.778;2023-03-01T03:23:45;102461.59;;;1.36;50.39
22830;BME280;11581;51.250;6.778;2023-03-01T03:26:12;102442.56;;;1.28;50.28
22830;BME280;11581;51.250;6.778;2023-03-01T03:28:40;102471.13;;;1.40;50.39
22830;BME280;11581;51.250;6.778;2023-03-01T03:31:07;102470.28;;;1.38;50.40
22830;BME280;11581;51.250;6.778;2023-03-01T03:33:35;102461.78;;;1.30;50.33
22830;BME280;11581;51.250;6.778;2023-03-01T03:36:03;102477.38;;;1.36;50.76
22830;BME280;11581;51.250;6.778;2023-03-01T03:38:30;102253.69;;;0.09;50.47
22830;BME280;11581;51.250;6.778;2023-03-01T03:41:01;102459.97;;;1.32;50.92
22830;BME280;11581;51.250;6.778;2023-03-01T03:43:29;102443.59;;;1.24;50.50
22830;BME280;11581;51.250;6.778;2023-03-01T03:45:56;102454.88;;;1.28;50.56
22830;BME280;11581;51.250;6.778;2023-03-01T03:48:23;102460.19;;;1.26;50.51
22830;BME280;11581;51.250;6.778;2023-03-01T03:50:53;102462.91;;;1.23;51.20
22830;BME280;11581;51.250;6.778;2023-03-01T03:53:22;102456.81;;;1.21;50.77
22830;BME280;11581;51.250;6.778;2023-03-01T03:55:49;102441.41;;;1.09;50.29
22830;BME280;11581;51.250;6.778;2023-03-01T03:58:17;102457.91;;;1.14;51.10
22830;BME280;11581;51.250;6.778;2023-03-01T04:00:46;102457.09;;;1.12;50.59
22830;BME280;11581;51.250;6.778;2023-03-01T04:03:14;102451.09;;;1.09;51.20
22830;BME280;11581;51.250;6.778;2023-03-01T04:05:44;102449.34;;;1.08;51.05
22830;BME280;11581;51.250;6.778;2023-03-01T04:08:12;102440.72;;;1.04;51.17
22830;BME280;11581;51.250;6.778;2023-03-01T04:10:41;102445.16;;;1.02;51.07
22830;BME280;11581;51.250;6.778;2023-03-01T04:13:11;102421.81;;;0.92;51.54
22830;BME280;11581;51.250;6.778;2023-03-01T04:15:38;102426.16;;;0.94;51.35
22830;BME280;11581;51.250;6.778;2023-03-01T04:18:05;102426.06;;;0.97;51.46
22830;BME280;11581;51.250;6.778;2023-03-01T04:20:34;102427.84;;;0.95;51.22
22830;BME280;11581;51.250;6.778;2023-03-01T04:23:03;102420.88;;;0.94;51.04
22830;BME280;11581;51.250;6.778;2023-03-01T04:25:39;102433.16;;;0.94;51.56
22830;BME280;11581;51.250;6.778;2023-03-01T04:28:05;102409.81;;;0.83;51.33
22830;BME280;11581;51.250;6.778;2023-03-01T04:30:32;102418.41;;;0.90;51.30
22830;BME280;11581;51.250;6.778;2023-03-01T04:33:02;102405.47;;;0.82;51.08
22830;BME280;11581;51.250;6.778;2023-03-01T04:35:29;102424.59;;;0.87;50.97
22830;BME280;11581;51.250;6.778;2023-03-01T04:37:56;102196.78;;;-0.47;51.15
22830;BME280;11581;51.250;6.778;2023-03-01T04:40:23;102430.88;;;0.82;51.64
22830;BME280;11581;51.250;6.778;2023-03-01T04:42:51;102424.78;;;0.81;51.84
22830;BME280;11581;51.250;6.778;2023-03-01T04:45:18;102426.59;;;0.79;51.70
22830;BME280;11581;51.250;6.778;2023-03-01T04:47:46;102425.75;;;0.77;51.48
22830;BME280;11581;51.250;6.778;2023-03-01T04:50:14;102425.81;;;0.76;51.56
22830;BME280;11581;51.250;6.778;2023-03-01T04:52:42;102417.13;;;0.74;51.33
22830;BME280;11581;51.250;6.778;2023-03-01T04:55:09;102352.78;;;0.30;52.05
22830;BME280;11581;51.250;6.778;2023-03-01T04:57:36;102411.97;;;0.71;51.84
22830;BME280;11581;51.250;6.778;2023-03-01T05:00:07;102419.03;;;0.69;52.39
22830;BME280;11581;51.250;6.778;2023-03-01T05:02:46;102417.31;;;0.68;52.09
22830;BME280;11581;51.250;6.778;2023-03-01T05:05:14;102344.19;;;0.25;51.61
22830;BME280;11581;51.250;6.778;2023-03-01T05:07:41;102418.28;;;0.65;52.05
22830;BME280;11581;51.250;6.778;2023-03-01T05:10:09;102349.50;;;0.22;51.72
22830;BME280;11581;51.250;6.778;2023-03-01T05:12:35;102420.97;;;0.62;52.03
22830;BME280;11581;51.250;6.778;2023-03-01T05:15:04;102415.78;;;0.61;52.50
22830;BME280;11581;51.250;6.778;2023-03-01T05:17:32;102418.44;;;0.59;52.02
22830;BME280;11581;51.250;6.778;2023-03-01T05:19:59;102418.44;;;0.59;52.42
22830;BME280;11581;51.250;6.778;2023-03-01T05:22:26;102410.59;;;0.58;52.14
22830;BME280;11581;51.250;6.778;2023-03-01T05:24:53;102291.06;;;-0.12;52.57
22830;BME280;11581;51.250;6.778;2023-03-01T05:27:20;102411.56;;;0.55;52.20
22830;BME280;11581;51.250;6.778;2023-03-01T05:29:47;102408.03;;;0.56;52.11
22830;BME280;11581;51.250;6.778;2023-03-01T05:32:15;102402.81;;;0.55;52.28
22830;BME280;11581;51.250;6.778;2023-03-01T05:34:42;102406.31;;;0.55;52.35
22830;BME280;11581;51.250;6.778;2023-03-01T05:37:09;102409.81;;;0.54;52.28
22830;BME280;11581;51.250;6.778;2023-03-01T05:39:36;102399.31;;;0.54;52.43
22830;BME280;11581;51.250;6.778;2023-03-01T05:42:02;102402.00;;;0.53;52.33
22830;BME280;11581;51.250;6.778;2023-03-01T05:44:29;102403.78;;;0.52;52.30
22830;BME280;11581;51.250;6.778;2023-03-01T05:46:56;102399.38;;;0.53;52.56
22830;BME280;11581;51.250;6.778;2023-03-01T05:49:24;102401.16;;;0.52;52.64
22830;BME280;11581;51.250;6.778;2023-03-01T05:51:53;102367.53;;;0.34;52.22
22830;BME280;11581;51.250;6.778;2023-03-01T05:54:20;102322.19;;;0.00;52.32
22830;BME280;11581;51.250;6.778;2023-03-01T05:56:47;102394.16;;;0.51;52.45
22830;BME280;11581;51.250;6.778;2023-03-01T05:59:14;102395.91;;;0.52;52.44
22830;BME280;11581;51.250;6.778;2023-03-01T06:01:41;102399.41;;;0.51;52.26
22830;BME280;11581;51.250;6.778;2023-03-01T06:04:09;102362.38;;;0.31;52.43
22830;BME280;11581;51.250;6.778;2023-03-01T06:06:37;102395.06;;;0.50;52.96
22830;BME280;11581;51.250;6.778;2023-03-01T06:09:04;102387.09;;;0.53;51.88
22830;BME280;11581;51.250;6.778;2023-03-01T06:11:33;102187.63;;;-0.63;52.18
22830;BME280;11581;51.250;6.778;2023-03-01T06:14:00;102399.22;;;0.57;52.39
22830;BME280;11581;51.250;6.778;2023-03-01T06:16:27;102399.19;;;0.59;52.21
22830;BME280;11581;51.250;6.778;2023-03-01T06:18:53;102390.34;;;0.61;52.05
22830;BME280;11581;51.250;6.778;2023-03-01T06:21:20;102391.13;;;0.65;52.51
22830;BME280;11581;51.250;6.778;2023-03-01T06:23:48;102392.84;;;0.66;52.31
22830;BME280;11581;51.250;6.778;2023-03-01T06:26:15;102395.34;;;0.70;52.91
22830;BME280;11581;51.250;6.778;2023-03-01T06:28:41;102390.91;;;0.72;52.51
22830;BME280;11581;51.250;6.778;2023-03-01T06:31:11;102284.28;;;0.10;52.86
22830;BME280;11581;51.250;6.778;2023-03-01T06:33:38;102391.53;;;0.80;52.57
22830;BME280;11581;51.250;6.778;2023-03-01T06:36:05;102382.66;;;0.84;52.53
22830;BME280;11581;51.250;6.778;2023-03-01T06:38:32;102382.56;;;0.87;52.09
22830;BME280;11581;51.250;6.778;2023-03-01T06:40:59;102341.28;;;0.63;52.55
22830;BME280;11581;51.250;6.778;2023-03-01T06:43:27;102390.09;;;0.98;52.69
22830;BME280;11581;51.250;6.778;2023-03-01T06:45:53;102392.50;;;1.05;52.34
22830;BME280;11581;51.250;6.778;2023-03-01T06:48:20;102391.19;;;1.18;53.11
22830;BME280;11581;51.250;6.778;2023-03-01T06:50:46;102338.84;;;0.85;53.98
22830;BME280;11581;51.250;6.778;2023-03-01T06:53:13;102388.78;;;1.64;54.48
22830;BME280;11581;51.250;6.778;2023-03-01T06:55:40;102331.50;;;1.72;54.28
22830;BME280;11581;51.250;6.778;2023-03-01T06:58:08;102384.88;;;2.48;54.65
22830;BME280;11581;51.250;6.778;2023-03-01T07:00:35;102353.75;;;2.81;54.05
22830;BME280;11581;51.250;6.778;2023-03-01T07:03:02;102381.75;;;3.48;53.47
22830;BME280;11581;51.250;6.778;2023-03-01T07:05:28;102344.97;;;3.85;53.29
22830;BME280;11581;51.250;6.778;2023-03-01T07:07:55;102371.53;;;4.59;52.69
22830;BME280;11581;51.250;6.778;2023-03-01T07:10:22;102377.56;;;5.17;51.72
22830;BME280;11581;51.250;6.778;2023-03-01T07:12:49;102380.81;;;5.74;50.85
22830;BME280;11581;51.250;6.778;2023-03-01T07:15:17;102375.19;;;6.31;49.75
22830;BME280;11581;51.250;6.778;2023-03-01T07:17:43;102378.19;;;6.89;48.82
22830;BME280;11581;51.250;6.778;2023-03-01T07:20:12;102363.41;;;7.46;48.01
22830;BME280;11581;51.250;6.778;2023-03-01T07:22:40;102363.84;;;7.97;46.89
22830;BME280;11581;51.250;6.778;2023-03-01T07:25:08;102372.06;;;8.50;46.07
22830;BME280;11581;51.250;6.778;2023-03-01T07:27:35;102367.94;;;9.01;45.80
22830;BME280;11581;51.250;6.778;2023-03-01T07:30:01;102355.56;;;9.53;45.15
22830;BME280;11581;51.250;6.778;2023-03-01T07:32:29;102345.84;;;10.04;43.61
22830;BME280;11581;51.250;6.778;2023-03-01T07:34:56;102351.47;;;10.62;43.35
22830;BME280;11581;51.250;6.778;2023-03-01T07:37:23;102343.84;;;11.17;42.36
22830;BME280;11581;51.250;6.778;2023-03-01T07:39:49;102347.00;;;11.69;41.44
22830;BME280;11581;51.250;6.778;2023-03-01T07:42:16;102351.16;;;12.19;40.71
22830;BME280;11581;51.250;6.778;2023-03-01T07:44:42;102350.81;;;12.67;39.87
22830;BME280;11581;51.250;6.778;2023-03-01T07:47:09;102346.00;;;13.15;38.86
22830;BME280;11581;51.250;6.778;2023-03-01T07:49:37;102350.50;;;13.57;37.40
22830;BME280;11581;51.250;6.778;2023-03-01T07:52:04;102358.56;;;13.98;37.09
22830;BME280;11581;51.250;6.778;2023-03-01T07:54:30;102325.16;;;14.23;36.84
22830;BME280;11581;51.250;6.778;2023-03-01T07:56:57;102350.25;;;14.72;36.01
22830;BME280;11581;51.250;6.778;2023-03-01T07:59:24;102294.41;;;14.76;35.85
22830;BME280;11581;51.250;6.778;2023-03-01T08:01:54;102352.41;;;15.46;35.49
22830;BME280;11581;51.250;6.778;2023-03-01T08:04:21;102346.31;;;15.83;34.66
22830;BME280;11581;51.250;6.778;2023-03-01T08:06:49;102350.56;;;16.31;33.36
22830;BME280;11581;51.250;6.778;2023-03-01T08:09:16;102336.47;;;16.66;33.59
22830;BME280;11581;51.250;6.778;2023-03-01T08:11:43;102356.13;;;17.20;32.69
22830;BME280;11581;51.250;6.778;2023-03-01T08:14:09;102351.34;;;17.59;32.04
22830;BME280;11581;51.250;6.778;2023-03-01T08:16:36;102344.75;;;17.97;31.52
22830;BME280;11581;51.250;6.778;2023-03-01T08:19:04;102345.50;;;18.32;30.89
22830;BME280;11581;51.250;6.778;2023-03-01T08:21:31;102341.66;;;18.68;30.70
22830;BME280;11581;51.250;6.778;2023-03-01T08:24:01;102271.06;;;18.63;28.85
22830;BME280;11581;51.250;6.778;2023-03-01T08:26:28;102343.25;;;19.36;29.14
22830;BME280;11581;51.250;6.778;2023-03-01T08:28:54;102342.63;;;19.58;27.89
22830;BME280;11581;51.250;6.778;2023-03-01T08:31:23;102329.25;;;19.57;27.08
22830;BME280;11581;51.250;6.778;2023-03-01T08:33:53;102340.25;;;19.63;25.75
22830;BME280;11581;51.250;6.778;2023-03-01T08:36:21;102323.16;;;19.47;26.25
22830;BME280;11581;51.250;6.778;2023-03-01T08:38:48;102283.00;;;19.02;26.43
22830;BME280;11581;51.250;6.778;2023-03-01T08:41:16;102349.97;;;19.24;25.48
22830;BME280;11581;51.250;6.778;2023-03-01T08:43:43;102344.00;;;19.05;26.03
22830;BME280;11581;51.250;6.778;2023-03-01T08:46:11;102344.81;;;18.89;25.89
22830;BME280;11581;51.250;6.778;2023-03-01T08:48:37;102336.94;;;18.70;26.05
22830;BME280;11581;51.250;6.778;2023-03-01T08:51:07;102331.09;;;18.49;25.20
22830;BME280;11581;51.250;6.778;2023-03-01T08:53:34;102334.38;;;18.35;26.54
22830;BME280;11581;51.250;6.778;2023-03-01T08:56:01;102335.31;;;18.26;26.16
22830;BME280;11581;51.250;6.778;2023-03-01T08:58:30;102337.44;;;18.15;26.14
22830;BME280;11581;51.250;6.778;2023-03-01T09:00:56;102329.16;;;18.08;26.69
22830;BME280;11581;51.250;6.778;2023-03-01T09:03:23;102288.13;;;17.61;26.48
22830;BME280;11581;51.250;6.778;2023-03-01T09:05:50;102329.94;;;18.01;26.34
22830;BME280;11581;51.250;6.778;2023-03-01T09:08:17;102332.78;;;17.99;26.60
22830;BME280;11581;51.250;6.778;2023-03-01T09:10:43;102334.78;;;17.97;26.50
22830;BME280;11581;51.250;6.778;2023-03-01T09:13:10;102329.69;;;17.94;25.90
22830;BME280;11581;51.250;6.778;2023-03-01T09:15:39;102317.94;;;17.77;25.05
22830;BME280;11581;51.250;6.778;2023-03-01T09:18:05;102324.19;;;17.60;25.55
22830;BME280;11581;51.250;6.778;2023-03-01T09:20:32;102330.97;;;17.29;25.47
22830;BME280;11581;51.250;6.778;2023-03-01T09:22:59;102331.06;;;16.93;25.90
22830;BME280;11581;51.250;6.778;2023-03-01T09:25:25;102338.59;;;16.62;26.29
22830;BME280;11581;51.250;6.778;2023-03-01T09:27:52;102332.13;;;16.46;26.62
22830;BME280;11581;51.250;6.778;2023-03-01T09:30:20;102332.16;;;16.36;26.65
22830;BME280;11581;51.250;6.778;2023-03-01T09:32:48;102329.91;;;16.32;26.46
22830;BME280;11581;51.250;6.778;2023-03-01T09:35:15;102321.09;;;16.30;26.93
22830;BME280;11581;51.250;6.778;2023-03-01T09:37:41;102313.16;;;16.28;27.10
22830;BME280;11581;51.250;6.778;2023-03-01T09:40:14;102307.19;;;16.34;26.49
22830;BME280;11581;51.250;6.778;2023-03-01T09:42:48;102307.22;;;16.44;26.46
22830;BME280;11581;51.250;6.778;2023-03-01T09:45:25;102299.94;;;16.54;26.26
22830;BME280;11581;51.250;6.778;2023-03-01T09:47:55;102305.31;;;16.81;26.16
22830;BME280;11581;51.250;6.778;2023-03-01T09:50:22;102200.66;;;16.32;26.48
22830;BME280;11581;51.250;6.778;2023-03-01T09:52:54;102297.63;;;16.86;25.62
22830;BME280;11581;51.250;6.778;2023-03-01T09:55:29;102294.22;;;16.84;26.32
22830;BME280;11581;51.250;6.778;2023-03-01T09:58:01;102306.75;;;16.75;25.59
22830;BME280;11581;51.250;6.778;2023-03-01T10:00:37;102292.09;;;16.60;25.15
22830;BME280;11581;51.250;6.778;2023-03-01T10:03:14;102291.03;;;16.34;25.27
22830;BME280;11581;51.250;6.778;2023-03-01T10:05:50;102287.22;;;16.00;25.29
22830;BME280;11581;51.250;6.778;2023-03-01T10:08:31;102297.19;;;15.61;25.92
22830;BME280;11581;51.250;6.778;2023-03-01T10:11:02;102297.88;;;15.25;26.16
22830;BME280;11581;51.250;6.778;2023-03-01T10:13:45;102299.41;;;14.90;26.18
22830;BME280;11581;51.250;6.778;2023-03-01T10:16:17;102258.53;;;14.37;26.57
22830;BME280;11581;51.250;6.778;2023-03-01T10:18:51;102256.47;;;14.20;27.37
22830;BME280;11581;51.250;6.778;2023-03-01T10:21:20;102195.50;;;13.72;28.03
22830;BME280;11581;51.250;6.778;2023-03-01T10:23:49;102274.25;;;14.21;27.64
22830;BME280;11581;51.250;6.778;2023-03-01T10:26:33;102267.47;;;14.47;27.37
22830;BME280;11581;51.250;6.778;2023-03-01T10:29:05;102284.63;;;14.65;27.94
22830;BME280;11581;51.250;6.778;2023-03-01T10:31:38;102258.97;;;14.91;27.60
22830;BME280;11581;51.250;6.778;2023-03-01T10:34:12;102155.16;;;14.62;27.65
22830;BME280;11581;51.250;6.778;2023-03-01T10:36:41;102257.28;;;15.67;27.72
22830;BME280;11581;51.250;6.778;2023-03-01T10:39:15;102262.28;;;16.08;26.76
22830;BME280;11581;51.250;6.778;2023-03-01T10:41:55;102261.00;;;16.48;26.69
22830;BME280;11581;51.250;6.778;2023-03-01T10:44:40;102260.50;;;16.80;25.86
22830;BME280;11581;51.250;6.778;2023-03-01T10:47:17;102253.69;;;17.03;25.74
22830;BME280;11581;51.250;6.778;2023-03-01T10:49:58;102268.38;;;17.26;26.08
22830;BME280;11581;51.250;6.778;2023-03-01T10:52:28;102238.28;;;17.48;25.95
22830;BME280;11581;51.250;6.778;2023-03-01T10:54:57;102199.44;;;17.41;25.60
22830;BME280;11581;51.250;6.778;2023-03-01T10:57:29;102242.69;;;18.00;24.51
22830;BME280;11581;51.250;6.778;2023-03-01T11:00:21;102221.06;;;18.26;25.54
22830;BME280;11581;51.250;6.778;2023-03-01T11:02:50;102224.25;;;18.63;25.01
22830;BME280;11581;51.250;6.778;2023-03-01T11:05:22;102194.41;;;18.80;24.11
22830;BME280;11581;51.250;6.778;2023-03-01T11:07:51;102217.13;;;19.35;24.70
22830;BME280;11581;51.250;6.778;2023-03-01T11:10:20;102222.84;;;19.72;24.30
22830;BME280;11581;51.250;6.778;2023-03-01T11:12:48;102157.72;;;19.74;24.40
22830;BME280;11581;51.250;6.778;2023-03-01T11:15:26;102218.22;;;20.52;22.92
22830;BME280;11581;51.250;6.778;2023-03-01T11:17:53;102206.53;;;20.82;23.30
22830;BME280;11581;51.250;6.778;2023-03-01T11:20:29;102199.28;;;21.05;21.93
22830;BME280;11581;51.250;6.778;2023-03-01T11:22:59;102165.38;;;21.01;21.87
22830;BME280;11581;51.250;6.778;2023-03-01T11:25:32;102170.81;;;21.23;21.49
22830;BME280;11581;51.250;6.778;2023-03-01T11:28:03;102114.25;;;21.12;21.59
22830;BME280;11581;51.250;6.778;2023-03-01T11:30:33;102180.72;;;21.68;21.32
22830;BME280;11581;51.250;6.778;2023-03-01T11:33:08;102155.16;;;21.62;20.87
22830;BME280;11581;51.250;6.778;2023-03-01T11:35:45;102171.16;;;21.72;20.72
22830;BME280;11581;51.250;6.778;2023-03-01T11:38:15;102172.53;;;21.76;22.86
22830;BME280;11581;51.250;6.778;2023-03-01T11:40:46;102162.03;;;21.73;21.19
22830;BME280;11581;51.250;6.778;2023-03-01T11:43:22;102166.94;;;21.69;20.86
22830;BME280;11581;51.250;6.778;2023-03-01T11:46:07;102159.53;;;21.63;21.00
22830;BME280;11581;51.250;6.778;2023-03-01T11:48:50;102164.03;;;21.71;20.37
22830;BME280;11581;51.250;6.778;2023-03-01T11:51:24;101974.41;;;20.58;20.72
22830;BME280;11581;51.250;6.778;2023-03-01T11:54:09;102121.53;;;21.49;20.74
22830;BME280;11581;51.250;6.778;2023-03-01T11:56:41;102137.63;;;21.65;20.96
22830;BME280;11581;51.250;6.778;2023-03-01T11:59:24;102165.69;;;21.80;20.30
22830;BME280;11581;51.250;6.778;2023-03-01T12:05:06;102164.03;;;21.71;20.92
22830;BME280;11581;51.250;6.778;2023-03-01T12:07:42;102163.28;;;21.48;19.39
22830;BME280;11581;51.250;6.778;2023-03-01T12:10:23;102162.84;;;21.22;20.04
22830;BME280;11581;51.250;6.778;2023-03-01T12:13:09;102154.25;;;20.96;20.38
22830;BME280;11581;51.250;6.778;2023-03-01T12:15:47;102090.28;;;20.56;21.10
22830;BME280;11581;51.250;6.778;2023-03-01T12:18:40;102147.66;;;20.90;21.37
22830;BME280;11581;51.250;6.778;2023-03-01T12:21:18;102134.81;;;21.07;21.32
22830;BME280;11581;51.250;6.778;2023-03-01T12:24:13;102134.50;;;21.24;22.15
22830;BME280;11581;51.250;6.778;2023-03-01T12:26:47;102140.44;;;21.42;21.32
22830;BME280;11581;51.250;6.778;2023-03-01T12:29:26;102112.00;;;21.53;21.31
22830;BME280;11581;51.250;6.778;2023-03-01T12:32:15;102128.59;;;21.87;21.41
22830;BME280;11581;51.250;6.778;2023-03-01T12:35:04;102078.59;;;21.81;20.59
22830;BME280;11581;51.250;6.778;2023-03-01T12:37:45;102116.00;;;22.15;20.38
22830;BME280;11581;51.250;6.778;2023-03-01T12:40:33;102114.22;;;22.22;20.63
22830;BME280;11581;51.250;6.778;2023-03-01T12:43:13;102115.25;;;22.21;20.33
22830;BME280;11581;51.250;6.778;2023-03-01T12:45:54;102110.97;;;22.12;20.06
22830;BME280;11581;51.250;6.778;2023-03-01T12:48:30;102109.38;;;22.03;20.28
22830;BME280;11581;51.250;6.778;2023-03-01T12:51:03;102063.59;;;21.71;20.17
22830;BME280;11581;51.250;6.778;2023-03-01T12:53:36;102097.97;;;21.93;19.92
22830;BME280;11581;51.250;6.778;2023-03-01T12:56:08;102058.72;;;21.66;19.81
22830;BME280;11581;51.250;6.778;2023-03-01T12:58:45;102090.53;;;21.72;19.73
22830;BME280;11581;51.250;6.778;2023-03-01T13:01:28;102065.56;;;21.48;20.27
22830;BME280;11581;51.250;6.778;2023-03-01T13:04:18;102104.13;;;21.58;20.85
22830;BME280;11581;51.250;6.778;2023-03-01T13:06:55;102093.19;;;21.51;20.07
22830;BME280;11581;51.250;6.778;2023-03-01T13:09:30;102087.63;;;21.30;19.78
22830;BME280;11581;51.250;6.778;2023-03-01T13:12:03;102087.25;;;21.19;20.06
22830;BME280;11581;51.250;6.778;2023-03-01T13:14:37;102055.69;;;20.81;20.03